sensor_id;sensor_type;location;lat;lon;timestamp;P1;durP1;ratioP1;P2;durP2;ratioP2
16310;SDS011;8264;48.510;8.872;2022-07-23T00:00:01;5.27;;;4.37;;
16310;SDS011;8264;48.510;8.872;2022-07-23T00:02:28;4.67;;;4.23;;
16310;SDS011;8264;48.510;8.872;2022-07-23T00:04:54;4.90;;;4.40;;
16310;SDS011;8264;48.510;8.872;2022-07-23T00:07:21;5.63;;;4.23;;
16310;SDS011;8264;48.510;8.872;2022-07-23T00:09:47;4.93;;;4.17;;
16310;SDS011;8264;48.510;8.872;2022-07-23T00:12:15;4.77;;;4.10;;
16310;SDS011;8264;48.510;8.872;2022-07-23T00:14:42;5.30;;;4.80;;
16310;SDS011;8264;48.510;8.872;2022-07-23T00:17:08;4.80;;;4.07;;
16310;SDS011;8264;48.510;8.872;2022-07-23T00:19:35;6.80;;;4.67;;
16310;SDS011;8264;48.510;8.872;2022-07-23T00:22:01;5.40;;;4.47;;
16310;SDS011;8264;48.510;8.872;2022-07-23T00:24:28;4.90;;;4.50;;
16310;SDS011;8264;48.510;8.872;2022-07-23T00:26:54;4.73;;;4.30;;
16310;SDS011;8264;48.510;8.872;2022-07-23T00:29:22;5.33;;;4.70;;
16310;SDS011;8264;48.510;8.872;2022-07-23T00:31:49;5.43;;;3.93;;
16310;SDS011;8264;48.510;8.872;2022-07-23T00:34:15;4.70;;;4.23;;
16310;SDS011;8264;48.510;8.872;2022-07-23T00:36:42;7.07;;;4.00;;
16310;SDS011;8264;48.510;8.872;2022-07-23T00:39:08;5.03;;;4.20;;
16310;SDS011;8264;48.510;8.872;2022-07-23T00:41:35;6.37;;;4.50;;
16310;SDS011;8264;48.510;8.872;2022-07-23T00:44:14;5.03;;;4.50;;
16310;SDS011;8264;48.510;8.872;2022-07-23T00:46:46;5.40;;;4.37;;
16310;SDS011;8264;48.510;8.872;2022-07-23T00:49:13;4.30;;;3.90;;
16310;SDS011;8264;48.510;8.872;2022-07-23T00:51:40;5.07;;;4.47;;
16310;SDS011;8264;48.510;8.872;2022-07-23T00:54:06;4.10;;;3.70;;
16310;SDS011;8264;48.510;8.872;2022-07-23T00:56:33;4.17;;;3.73;;
16310;SDS011;8264;48.510;8.872;2022-07-23T00:58:59;5.77;;;3.90;;
16310;SDS011;8264;48.510;8.872;2022-07-23T01:01:26;5.40;;;3.80;;
16310;SDS011;8264;48.510;8.872;2022-07-23T01:03:54;4.83;;;3.93;;
16310;SDS011;8264;48.510;8.872;2022-07-23T01:06:20;4.10;;;3.70;;
16310;SDS011;8264;48.510;8.872;2022-07-23T01:08:48;5.67;;;3.83;;
16310;SDS011;8264;48.510;8.872;2022-07-23T01:11:14;3.80;;;3.43;;
16310;SDS011;8264;48.510;8.872;2022-07-23T01:13:41;4.70;;;3.93;;
16310;SDS011;8264;48.510;8.872;2022-07-23T01:16:08;3.97;;;3.57;;
16310;SDS011;8264;48.510;8.872;2022-07-23T01:18:34;5.00;;;3.83;;
16310;SDS011;8264;48.510;8.872;2022-07-23T01:21:02;4.20;;;3.80;;
16310;SDS011;8264;48.510;8.872;2022-07-23T01:23:30;5.03;;;3.90;;
16310;SDS011;8264;48.510;8.872;2022-07-23T01:25:57;5.33;;;3.30;;
16310;SDS011;8264;48.510;8.872;2022-07-23T01:28:23;5.27;;;3.77;;
16310;SDS011;8264;48.510;8.872;2022-07-23T01:30:50;4.60;;;4.03;;
16310;SDS011;8264;48.510;8.872;2022-07-23T01:33:17;4.10;;;3.80;;
16310;SDS011;8264;48.510;8.872;2022-07-23T01:35:43;4.80;;;3.87;;
16310;SDS011;8264;48.510;8.872;2022-07-23T01:38:09;4.33;;;3.90;;
16310;SDS011;8264;48.510;8.872;2022-07-23T01:40:37;5.23;;;3.80;;
16310;SDS011;8264;48.510;8.872;2022-07-23T01:43:04;4.90;;;4.17;;
16310;SDS011;8264;48.510;8.872;2022-07-23T01:45:30;5.27;;;4.60;;
16310;SDS011;8264;48.510;8.872;2022-07-23T01:47:57;4.17;;;3.77;;
16310;SDS011;8264;48.510;8.872;2022-07-23T01:50:23;4.83;;;4.30;;
16310;SDS011;8264;48.510;8.872;2022-07-23T01:52:50;4.80;;;4.33;;
16310;SDS011;8264;48.510;8.872;2022-07-23T01:55:16;4.10;;;3.80;;
16310;SDS011;8264;48.510;8.872;2022-07-23T01:57:44;4.67;;;4.27;;
16310;SDS011;8264;48.510;8.872;2022-07-23T02:00:11;6.33;;;4.40;;
16310;SDS011;8264;48.510;8.872;2022-07-23T02:02:38;4.70;;;4.20;;
16310;SDS011;8264;48.510;8.872;2022-07-23T02:05:05;4.80;;;4.20;;
16310;SDS011;8264;48.510;8.872;2022-07-23T02:07:31;6.70;;;4.33;;
16310;SDS011;8264;48.510;8.872;2022-07-23T02:09:58;4.17;;;3.87;;
16310;SDS011;8264;48.510;8.872;2022-07-23T02:12:24;6.67;;;4.13;;
16310;SDS011;8264;48.510;8.872;2022-07-23T02:14:52;4.47;;;4.07;;
16310;SDS011;8264;48.510;8.872;2022-07-23T02:17:19;5.73;;;4.10;;
16310;SDS011;8264;48.510;8.872;2022-07-23T02:19:45;4.60;;;4.10;;
16310;SDS011;8264;48.510;8.872;2022-07-23T02:22:12;4.60;;;4.20;;
16310;SDS011;8264;48.510;8.872;2022-07-23T02:24:38;5.63;;;4.40;;
16310;SDS011;8264;48.510;8.872;2022-07-23T02:27:05;4.80;;;4.30;;
16310;SDS011;8264;48.510;8.872;2022-07-23T02:29:31;5.00;;;4.50;;
16310;SDS011;8264;48.510;8.872;2022-07-23T02:31:59;4.57;;;4.17;;
16310;SDS011;8264;48.510;8.872;2022-07-23T02:34:25;4.53;;;4.13;;
16310;SDS011;8264;48.510;8.872;2022-07-23T02:36:52;5.40;;;4.40;;
16310;SDS011;8264;48.510;8.872;2022-07-23T02:39:18;5.17;;;4.43;;
16310;SDS011;8264;48.510;8.872;2022-07-23T02:41:45;5.87;;;4.80;;
16310;SDS011;8264;48.510;8.872;2022-07-23T02:44:11;4.90;;;4.50;;
16310;SDS011;8264;48.510;8.872;2022-07-23T02:46:38;5.30;;;4.73;;
16310;SDS011;8264;48.510;8.872;2022-07-23T02:49:06;5.53;;;4.97;;
16310;SDS011;8264;48.510;8.872;2022-07-23T02:51:32;7.87;;;4.57;;
16310;SDS011;8264;48.510;8.872;2022-07-23T02:53:59;9.03;;;4.97;;
16310;SDS011;8264;48.510;8.872;2022-07-23T02:56:25;8.07;;;5.30;;
16310;SDS011;8264;48.510;8.872;2022-07-23T02:58:52;5.93;;;4.90;;
16310;SDS011;8264;48.510;8.872;2022-07-23T03:01:18;7.50;;;4.73;;
16310;SDS011;8264;48.510;8.872;2022-07-23T03:03:45;7.73;;;5.13;;
16310;SDS011;8264;48.510;8.872;2022-07-23T03:06:12;5.97;;;4.40;;
16310;SDS011;8264;48.510;8.872;2022-07-23T03:08:39;5.00;;;4.60;;
16310;SDS011;8264;48.510;8.872;2022-07-23T03:11:06;6.60;;;4.53;;
16310;SDS011;8264;48.510;8.872;2022-07-23T03:13:35;4.70;;;4.30;;
16310;SDS011;8264;48.510;8.872;2022-07-23T03:16:02;6.77;;;4.83;;
16310;SDS011;8264;48.510;8.872;2022-07-23T03:18:29;7.10;;;5.37;;
16310;SDS011;8264;48.510;8.872;2022-07-23T03:20:56;5.07;;;4.67;;
16310;SDS011;8264;48.510;8.872;2022-07-23T03:23:24;6.60;;;4.90;;
16310;SDS011;8264;48.510;8.872;2022-07-23T03:25:50;6.20;;;4.57;;
16310;SDS011;8264;48.510;8.872;2022-07-23T03:28:17;6.57;;;4.33;;
16310;SDS011;8264;48.510;8.872;2022-07-23T03:30:45;10.97;;;4.97;;
16310;SDS011;8264;48.510;8.872;2022-07-23T03:33:13;4.63;;;4.23;;
16310;SDS011;8264;48.510;8.872;2022-07-23T03:35:39;5.53;;;4.53;;
16310;SDS011;8264;48.510;8.872;2022-07-23T03:38:06;7.50;;;5.03;;
16310;SDS011;8264;48.510;8.872;2022-07-23T03:40:34;5.77;;;4.83;;
16310;SDS011;8264;48.510;8.872;2022-07-23T03:43:00;5.73;;;4.67;;
16310;SDS011;8264;48.510;8.872;2022-07-23T03:45:27;5.77;;;4.77;;
16310;SDS011;8264;48.510;8.872;2022-07-23T03:47:53;6.60;;;5.57;;
16310;SDS011;8264;48.510;8.872;2022-07-23T03:50:20;6.43;;;5.33;;
16310;SDS011;8264;48.510;8.872;2022-07-23T03:52:47;8.83;;;5.67;;
16310;SDS011;8264;48.510;8.872;2022-07-23T03:55:13;7.77;;;5.50;;
16310;SDS011;8264;48.510;8.872;2022-07-23T03:57:41;6.90;;;5.43;;
16310;SDS011;8264;48.510;8.872;2022-07-23T04:00:08;8.43;;;4.77;;
16310;SDS011;8264;48.510;8.872;2022-07-23T04:02:36;6.50;;;5.10;;
16310;SDS011;8264;48.510;8.872;2022-07-23T04:05:02;5.60;;;4.80;;
16310;SDS011;8264;48.510;8.872;2022-07-23T04:07:29;46.37;;;42.17;;
16310;SDS011;8264;48.510;8.872;2022-07-23T04:09:56;11.83;;;5.30;;
16310;SDS011;8264;48.510;8.872;2022-07-23T04:12:23;6.40;;;4.97;;
16310;SDS011;8264;48.510;8.872;2022-07-23T04:14:51;4.90;;;4.40;;
16310;SDS011;8264;48.510;8.872;2022-07-23T04:17:17;64.53;;;58.20;;
16310;SDS011;8264;48.510;8.872;2022-07-23T04:19:44;34.40;;;30.77;;
16310;SDS011;8264;48.510;8.872;2022-07-23T04:22:10;9.47;;;7.03;;
16310;SDS011;8264;48.510;8.872;2022-07-23T04:24:37;6.37;;;5.77;;
16310;SDS011;8264;48.510;8.872;2022-07-23T04:27:04;8.47;;;5.93;;
16310;SDS011;8264;48.510;8.872;2022-07-23T04:29:31;8.60;;;6.40;;
16310;SDS011;8264;48.510;8.872;2022-07-23T04:31:59;7.27;;;6.33;;
16310;SDS011;8264;48.510;8.872;2022-07-23T04:34:26;7.37;;;5.57;;
16310;SDS011;8264;48.510;8.872;2022-07-23T04:36:52;10.53;;;6.20;;
16310;SDS011;8264;48.510;8.872;2022-07-23T04:39:19;8.60;;;6.10;;
16310;SDS011;8264;48.510;8.872;2022-07-23T04:41:45;6.73;;;6.13;;
16310;SDS011;8264;48.510;8.872;2022-07-23T04:44:12;6.50;;;5.90;;
16310;SDS011;8264;48.510;8.872;2022-07-23T04:46:38;6.67;;;5.83;;
16310;SDS011;8264;48.510;8.872;2022-07-23T04:49:06;8.17;;;5.50;;
16310;SDS011;8264;48.510;8.872;2022-07-23T04:51:33;11.93;;;10.73;;
16310;SDS011;8264;48.510;8.872;2022-07-23T04:53:59;14.00;;;8.87;;
16310;SDS011;8264;48.510;8.872;2022-07-23T04:56:26;14.93;;;8.87;;
16310;SDS011;8264;48.510;8.872;2022-07-23T04:58:52;60.07;;;11.13;;
16310;SDS011;8264;48.510;8.872;2022-07-23T05:01:19;8.83;;;7.60;;
16310;SDS011;8264;48.510;8.872;2022-07-23T05:03:45;9.40;;;6.73;;
16310;SDS011;8264;48.510;8.872;2022-07-23T05:06:14;7.83;;;6.83;;
16310;SDS011;8264;48.510;8.872;2022-07-23T05:08:41;53.30;;;9.90;;
16310;SDS011;8264;48.510;8.872;2022-07-23T05:11:07;32.37;;;6.70;;
16310;SDS011;8264;48.510;8.872;2022-07-23T05:13:33;8.47;;;5.93;;
16310;SDS011;8264;48.510;8.872;2022-07-23T05:16:00;12.97;;;6.50;;
16310;SDS011;8264;48.510;8.872;2022-07-23T05:18:26;8.13;;;5.47;;
16310;SDS011;8264;48.510;8.872;2022-07-23T05:20:53;10.50;;;6.37;;
16310;SDS011;8264;48.510;8.872;2022-07-23T05:23:21;14.57;;;6.20;;
16310;SDS011;8264;48.510;8.872;2022-07-23T05:25:47;10.47;;;5.77;;
16310;SDS011;8264;48.510;8.872;2022-07-23T05:28:14;9.37;;;5.70;;
16310;SDS011;8264;48.510;8.872;2022-07-23T05:30:41;8.17;;;5.87;;
16310;SDS011;8264;48.510;8.872;2022-07-23T05:33:07;9.00;;;6.50;;
16310;SDS011;8264;48.510;8.872;2022-07-23T05:35:34;7.77;;;6.03;;
16310;SDS011;8264;48.510;8.872;2022-07-23T05:38:00;27.47;;;6.30;;
16310;SDS011;8264;48.510;8.872;2022-07-23T05:40:28;45.77;;;13.57;;
16310;SDS011;8264;48.510;8.872;2022-07-23T05:42:55;48.07;;;9.83;;
16310;SDS011;8264;48.510;8.872;2022-07-23T05:45:21;16.73;;;7.80;;
16310;SDS011;8264;48.510;8.872;2022-07-23T05:47:48;8.10;;;6.37;;
16310;SDS011;8264;48.510;8.872;2022-07-23T05:50:15;14.73;;;7.87;;
16310;SDS011;8264;48.510;8.872;2022-07-23T05:52:42;14.60;;;7.10;;
16310;SDS011;8264;48.510;8.872;2022-07-23T05:55:10;17.03;;;6.60;;
16310;SDS011;8264;48.510;8.872;2022-07-23T05:57:38;12.13;;;7.03;;
16310;SDS011;8264;48.510;8.872;2022-07-23T06:00:06;13.37;;;6.57;;
16310;SDS011;8264;48.510;8.872;2022-07-23T06:02:34;12.87;;;6.20;;
16310;SDS011;8264;48.510;8.872;2022-07-23T06:05:00;11.57;;;6.67;;
16310;SDS011;8264;48.510;8.872;2022-07-23T06:07:26;9.47;;;6.30;;
16310;SDS011;8264;48.510;8.872;2022-07-23T06:09:53;8.60;;;6.80;;
16310;SDS011;8264;48.510;8.872;2022-07-23T06:12:19;11.03;;;6.93;;
16310;SDS011;8264;48.510;8.872;2022-07-23T06:14:47;7.47;;;6.33;;
16310;SDS011;8264;48.510;8.872;2022-07-23T06:17:14;9.20;;;6.67;;
16310;SDS011;8264;48.510;8.872;2022-07-23T06:19:41;9.87;;;6.37;;
16310;SDS011;8264;48.510;8.872;2022-07-23T06:22:08;11.33;;;6.70;;
16310;SDS011;8264;48.510;8.872;2022-07-23T06:24:34;10.50;;;6.17;;
16310;SDS011;8264;48.510;8.872;2022-07-23T06:27:01;7.43;;;5.87;;
16310;SDS011;8264;48.510;8.872;2022-07-23T06:29:27;9.13;;;6.50;;
16310;SDS011;8264;48.510;8.872;2022-07-23T06:31:55;6.33;;;5.83;;
16310;SDS011;8264;48.510;8.872;2022-07-23T06:34:22;7.20;;;6.50;;
16310;SDS011;8264;48.510;8.872;2022-07-23T06:36:48;7.87;;;5.70;;
16310;SDS011;8264;48.510;8.872;2022-07-23T06:39:14;7.90;;;5.60;;
16310;SDS011;8264;48.510;8.872;2022-07-23T06:41:41;6.50;;;5.90;;
16310;SDS011;8264;48.510;8.872;2022-07-23T06:44:07;15.20;;;13.70;;
16310;SDS011;8264;48.510;8.872;2022-07-23T06:46:34;9.83;;;7.70;;
16310;SDS011;8264;48.510;8.872;2022-07-23T06:49:02;8.90;;;7.00;;
16310;SDS011;8264;48.510;8.872;2022-07-23T06:51:29;10.43;;;7.20;;
16310;SDS011;8264;48.510;8.872;2022-07-23T06:53:56;10.50;;;7.07;;
16310;SDS011;8264;48.510;8.872;2022-07-23T06:56:23;7.50;;;6.73;;
16310;SDS011;8264;48.510;8.872;2022-07-23T06:58:50;8.13;;;7.30;;
16310;SDS011;8264;48.510;8.872;2022-07-23T07:01:16;95.77;;;17.33;;
16310;SDS011;8264;48.510;8.872;2022-07-23T07:03:42;118.63;;;18.87;;
16310;SDS011;8264;48.510;8.872;2022-07-23T07:06:10;197.43;;;23.80;;
16310;SDS011;8264;48.510;8.872;2022-07-23T07:08:37;252.17;;;27.37;;
16310;SDS011;8264;48.510;8.872;2022-07-23T07:11:03;394.00;;;43.07;;
16310;SDS011;8264;48.510;8.872;2022-07-23T07:13:30;28.40;;;8.73;;
16310;SDS011;8264;48.510;8.872;2022-07-23T07:15:56;8.20;;;6.30;;
16310;SDS011;8264;48.510;8.872;2022-07-23T07:18:23;7.73;;;6.50;;
16310;SDS011;8264;48.510;8.872;2022-07-23T07:20:49;12.23;;;6.67;;
16310;SDS011;8264;48.510;8.872;2022-07-23T07:23:17;24.73;;;8.63;;
16310;SDS011;8264;48.510;8.872;2022-07-23T07:25:45;19.03;;;7.60;;
16310;SDS011;8264;48.510;8.872;2022-07-23T07:28:12;60.03;;;11.60;;
16310;SDS011;8264;48.510;8.872;2022-07-23T07:30:38;16.03;;;7.00;;
16310;SDS011;8264;48.510;8.872;2022-07-23T07:33:05;103.40;;;15.80;;
16310;SDS011;8264;48.510;8.872;2022-07-23T07:35:31;184.20;;;22.73;;
16310;SDS011;8264;48.510;8.872;2022-07-23T07:37:58;82.60;;;15.50;;
16310;SDS011;8264;48.510;8.872;2022-07-23T07:40:26;158.03;;;21.80;;
16310;SDS011;8264;48.510;8.872;2022-07-23T07:42:53;140.63;;;22.73;;
16310;SDS011;8264;48.510;8.872;2022-07-23T07:45:22;6.40;;;5.73;;
16310;SDS011;8264;48.510;8.872;2022-07-23T07:47:49;61.20;;;13.83;;
16310;SDS011;8264;48.510;8.872;2022-07-23T07:50:16;8.33;;;6.17;;
16310;SDS011;8264;48.510;8.872;2022-07-23T07:52:42;7.07;;;5.70;;
16310;SDS011;8264;48.510;8.872;2022-07-23T07:55:09;6.33;;;5.60;;
16310;SDS011;8264;48.510;8.872;2022-07-23T07:57:38;12.27;;;6.50;;
16310;SDS011;8264;48.510;8.872;2022-07-23T08:00:05;26.40;;;8.57;;
16310;SDS011;8264;48.510;8.872;2022-07-23T08:02:39;8.23;;;5.73;;
16310;SDS011;8264;48.510;8.872;2022-07-23T08:05:06;5.83;;;5.33;;
16310;SDS011;8264;48.510;8.872;2022-07-23T08:07:33;6.57;;;5.03;;
16310;SDS011;8264;48.510;8.872;2022-07-23T08:09:59;5.57;;;5.07;;
16310;SDS011;8264;48.510;8.872;2022-07-23T08:12:26;6.83;;;5.83;;
16310;SDS011;8264;48.510;8.872;2022-07-23T08:14:54;6.13;;;5.53;;
16310;SDS011;8264;48.510;8.872;2022-07-23T08:17:20;7.47;;;5.60;;
16310;SDS011;8264;48.510;8.872;2022-07-23T08:19:46;6.80;;;5.63;;
16310;SDS011;8264;48.510;8.872;2022-07-23T08:22:13;6.53;;;5.93;;
16310;SDS011;8264;48.510;8.872;2022-07-23T08:24:39;7.70;;;6.10;;
16310;SDS011;8264;48.510;8.872;2022-07-23T08:27:06;6.80;;;6.10;;
16310;SDS011;8264;48.510;8.872;2022-07-23T08:29:32;6.97;;;5.73;;
16310;SDS011;8264;48.510;8.872;2022-07-23T08:32:00;17.03;;;9.03;;
16310;SDS011;8264;48.510;8.872;2022-07-23T08:34:26;11.27;;;6.37;;
16310;SDS011;8264;48.510;8.872;2022-07-23T08:36:53;6.03;;;5.50;;
16310;SDS011;8264;48.510;8.872;2022-07-23T08:39:19;7.03;;;6.33;;
16310;SDS011;8264;48.510;8.872;2022-07-23T08:41:46;6.67;;;6.07;;
16310;SDS011;8264;48.510;8.872;2022-07-23T08:44:14;7.17;;;5.80;;
16310;SDS011;8264;48.510;8.872;2022-07-23T08:46:41;6.90;;;6.17;;
16310;SDS011;8264;48.510;8.872;2022-07-23T08:49:11;6.53;;;5.93;;
16310;SDS011;8264;48.510;8.872;2022-07-23T08:51:38;6.57;;;5.73;;
16310;SDS011;8264;48.510;8.872;2022-07-23T08:54:05;9.97;;;6.77;;
16310;SDS011;8264;48.510;8.872;2022-07-23T08:56:31;6.20;;;5.60;;
16310;SDS011;8264;48.510;8.872;2022-07-23T08:58:58;5.80;;;5.20;;
16310;SDS011;8264;48.510;8.872;2022-07-23T09:01:24;7.03;;;5.80;;
16310;SDS011;8264;48.510;8.872;2022-07-23T09:03:50;6.30;;;5.70;;
16310;SDS011;8264;48.510;8.872;2022-07-23T09:06:18;6.93;;;5.57;;
16310;SDS011;8264;48.510;8.872;2022-07-23T09:08:45;6.53;;;5.90;;
16310;SDS011;8264;48.510;8.872;2022-07-23T09:11:13;6.57;;;5.77;;
16310;SDS011;8264;48.510;8.872;2022-07-23T09:13:42;8.13;;;6.30;;
16310;SDS011;8264;48.510;8.872;2022-07-23T09:16:13;6.43;;;5.70;;
16310;SDS011;8264;48.510;8.872;2022-07-23T09:18:42;6.13;;;5.53;;
16310;SDS011;8264;48.510;8.872;2022-07-23T09:21:10;6.43;;;5.67;;
16310;SDS011;8264;48.510;8.872;2022-07-23T09:23:41;7.40;;;5.93;;
16310;SDS011;8264;48.510;8.872;2022-07-23T09:29:00;7.00;;;5.93;;
16310;SDS011;8264;48.510;8.872;2022-07-23T09:31:32;6.47;;;5.97;;
16310;SDS011;8264;48.510;8.872;2022-07-23T09:34:07;6.03;;;5.53;;
16310;SDS011;8264;48.510;8.872;2022-07-23T09:36:38;6.63;;;6.03;;
16310;SDS011;8264;48.510;8.872;2022-07-23T09:39:06;6.40;;;5.90;;
16310;SDS011;8264;48.510;8.872;2022-07-23T09:41:37;7.23;;;6.53;;
16310;SDS011;8264;48.510;8.872;2022-07-23T09:44:08;7.83;;;5.83;;
16310;SDS011;8264;48.510;8.872;2022-07-23T09:46:36;7.60;;;6.60;;
16310;SDS011;8264;48.510;8.872;2022-07-23T09:49:09;6.27;;;5.77;;
16310;SDS011;8264;48.510;8.872;2022-07-23T09:51:42;9.07;;;6.17;;
16310;SDS011;8264;48.510;8.872;2022-07-23T09:54:20;6.83;;;5.80;;
16310;SDS011;8264;48.510;8.872;2022-07-23T09:56:49;6.33;;;5.73;;
16310;SDS011;8264;48.510;8.872;2022-07-23T09:59:16;6.80;;;6.20;;
16310;SDS011;8264;48.510;8.872;2022-07-23T10:01:43;6.27;;;5.77;;
16310;SDS011;8264;48.510;8.872;2022-07-23T10:04:10;7.30;;;5.70;;
16310;SDS011;8264;48.510;8.872;2022-07-23T10:06:37;7.33;;;6.63;;
16310;SDS011;8264;48.510;8.872;2022-07-23T10:09:04;7.17;;;6.40;;
16310;SDS011;8264;48.510;8.872;2022-07-23T10:11:32;7.00;;;6.40;;
16310;SDS011;8264;48.510;8.872;2022-07-23T10:13:59;7.47;;;6.20;;
16310;SDS011;8264;48.510;8.872;2022-07-23T10:16:28;6.80;;;6.13;;
16310;SDS011;8264;48.510;8.872;2022-07-23T10:18:55;6.70;;;6.10;;
16310;SDS011;8264;48.510;8.872;2022-07-23T10:21:23;6.93;;;6.30;;
16310;SDS011;8264;48.510;8.872;2022-07-23T10:23:57;7.83;;;6.17;;
16310;SDS011;8264;48.510;8.872;2022-07-23T10:26:34;6.37;;;5.73;;
16310;SDS011;8264;48.510;8.872;2022-07-23T10:29:10;7.40;;;6.60;;
16310;SDS011;8264;48.510;8.872;2022-07-23T10:31:46;8.53;;;6.43;;
16310;SDS011;8264;48.510;8.872;2022-07-23T10:34:19;6.87;;;6.17;;
16310;SDS011;8264;48.510;8.872;2022-07-23T10:36:49;6.60;;;6.00;;
16310;SDS011;8264;48.510;8.872;2022-07-23T10:39:19;6.77;;;6.17;;
16310;SDS011;8264;48.510;8.872;2022-07-23T10:41:50;6.70;;;6.00;;
16310;SDS011;8264;48.510;8.872;2022-07-23T10:44:17;6.73;;;5.90;;
16310;SDS011;8264;48.510;8.872;2022-07-23T10:46:54;6.83;;;5.63;;
16310;SDS011;8264;48.510;8.872;2022-07-23T10:49:44;8.50;;;5.60;;
16310;SDS011;8264;48.510;8.872;2022-07-23T10:52:17;6.17;;;5.63;;
16310;SDS011;8264;48.510;8.872;2022-07-23T10:54:49;7.20;;;6.13;;
16310;SDS011;8264;48.510;8.872;2022-07-23T10:57:18;6.63;;;5.93;;
16310;SDS011;8264;48.510;8.872;2022-07-23T11:02:36;7.20;;;6.07;;
16310;SDS011;8264;48.510;8.872;2022-07-23T11:05:04;5.97;;;5.43;;
16310;SDS011;8264;48.510;8.872;2022-07-23T11:07:32;7.50;;;5.60;;
16310;SDS011;8264;48.510;8.872;2022-07-23T11:09:58;7.23;;;5.80;;
16310;SDS011;8264;48.510;8.872;2022-07-23T11:12:32;5.87;;;5.37;;
16310;SDS011;8264;48.510;8.872;2022-07-23T11:15:01;6.17;;;5.47;;
16310;SDS011;8264;48.510;8.872;2022-07-23T11:17:29;6.20;;;5.70;;
16310;SDS011;8264;48.510;8.872;2022-07-23T11:20:12;5.93;;;5.33;;
16310;SDS011;8264;48.510;8.872;2022-07-23T11:22:45;5.90;;;5.40;;
16310;SDS011;8264;48.510;8.872;2022-07-23T11:25:14;5.80;;;5.30;;
16310;SDS011;8264;48.510;8.872;2022-07-23T11:27:56;8.80;;;5.20;;
16310;SDS011;8264;48.510;8.872;2022-07-23T11:30:38;5.23;;;4.73;;
16310;SDS011;8264;48.510;8.872;2022-07-23T11:33:15;5.53;;;5.03;;
16310;SDS011;8264;48.510;8.872;2022-07-23T11:35:47;5.57;;;5.00;;
16310;SDS011;8264;48.510;8.872;2022-07-23T11:38:16;5.23;;;4.73;;
16310;SDS011;8264;48.510;8.872;2022-07-23T11:40:44;5.63;;;5.13;;
16310;SDS011;8264;48.510;8.872;2022-07-23T11:43:13;6.07;;;5.30;;
16310;SDS011;8264;48.510;8.872;2022-07-23T11:45:40;5.60;;;5.10;;
16310;SDS011;8264;48.510;8.872;2022-07-23T11:48:08;5.30;;;4.80;;
16310;SDS011;8264;48.510;8.872;2022-07-23T11:50:36;6.40;;;5.57;;
16310;SDS011;8264;48.510;8.872;2022-07-23T11:53:02;6.37;;;5.27;;
16310;SDS011;8264;48.510;8.872;2022-07-23T11:55:29;5.50;;;5.00;;
16310;SDS011;8264;48.510;8.872;2022-07-23T11:57:56;5.60;;;5.10;;
16310;SDS011;8264;48.510;8.872;2022-07-23T12:00:24;5.60;;;5.10;;
16310;SDS011;8264;48.510;8.872;2022-07-23T12:02:53;5.33;;;4.93;;
16310;SDS011;8264;48.510;8.872;2022-07-23T12:05:26;5.63;;;5.13;;
16310;SDS011;8264;48.510;8.872;2022-07-23T12:07:54;6.00;;;5.07;;
16310;SDS011;8264;48.510;8.872;2022-07-23T12:10:22;5.70;;;4.83;;
16310;SDS011;8264;48.510;8.872;2022-07-23T12:12:50;5.30;;;4.90;;
16310;SDS011;8264;48.510;8.872;2022-07-23T12:15:18;6.77;;;4.90;;
16310;SDS011;8264;48.510;8.872;2022-07-23T12:17:47;6.33;;;5.27;;
16310;SDS011;8264;48.510;8.872;2022-07-23T12:20:16;13.77;;;10.97;;
16310;SDS011;8264;48.510;8.872;2022-07-23T12:22:44;5.70;;;5.20;;
16310;SDS011;8264;48.510;8.872;2022-07-23T12:25:13;5.53;;;5.03;;
16310;SDS011;8264;48.510;8.872;2022-07-23T12:27:41;6.13;;;5.53;;
16310;SDS011;8264;48.510;8.872;2022-07-23T12:30:15;7.37;;;6.60;;
16310;SDS011;8264;48.510;8.872;2022-07-23T12:32:43;9.57;;;8.10;;
16310;SDS011;8264;48.510;8.872;2022-07-23T12:35:11;5.93;;;5.13;;
16310;SDS011;8264;48.510;8.872;2022-07-23T12:37:38;7.03;;;5.77;;
16310;SDS011;8264;48.510;8.872;2022-07-23T12:40:19;9.13;;;5.80;;
16310;SDS011;8264;48.510;8.872;2022-07-23T12:42:51;9.17;;;8.03;;
16310;SDS011;8264;48.510;8.872;2022-07-23T12:45:19;9.10;;;7.27;;
16310;SDS011;8264;48.510;8.872;2022-07-23T12:50:35;7.13;;;6.00;;
16310;SDS011;8264;48.510;8.872;2022-07-23T12:53:08;6.13;;;5.53;;
16310;SDS011;8264;48.510;8.872;2022-07-23T12:55:36;7.43;;;6.77;;
16310;SDS011;8264;48.510;8.872;2022-07-23T12:58:04;5.80;;;4.87;;
16310;SDS011;8264;48.510;8.872;2022-07-23T13:00:32;5.97;;;5.30;;
16310;SDS011;8264;48.510;8.872;2022-07-23T13:03:00;5.83;;;5.30;;
16310;SDS011;8264;48.510;8.872;2022-07-23T13:05:26;6.13;;;5.53;;
16310;SDS011;8264;48.510;8.872;2022-07-23T13:07:54;5.30;;;4.80;;
16310;SDS011;8264;48.510;8.872;2022-07-23T13:10:20;5.50;;;5.00;;
16310;SDS011;8264;48.510;8.872;2022-07-23T13:12:47;5.67;;;5.17;;
16310;SDS011;8264;48.510;8.872;2022-07-23T13:15:13;7.47;;;6.73;;
16310;SDS011;8264;48.510;8.872;2022-07-23T13:17:40;5.53;;;5.03;;
16310;SDS011;8264;48.510;8.872;2022-07-23T13:20:09;4.83;;;4.43;;
16310;SDS011;8264;48.510;8.872;2022-07-23T13:22:36;5.43;;;4.93;;
16310;SDS011;8264;48.510;8.872;2022-07-23T13:25:05;5.70;;;4.50;;
16310;SDS011;8264;48.510;8.872;2022-07-23T13:27:32;5.43;;;4.93;;
16310;SDS011;8264;48.510;8.872;2022-07-23T13:29:59;5.00;;;4.50;;
16310;SDS011;8264;48.510;8.872;2022-07-23T13:32:25;5.73;;;4.97;;
16310;SDS011;8264;48.510;8.872;2022-07-23T13:34:51;6.20;;;4.80;;
16310;SDS011;8264;48.510;8.872;2022-07-23T13:37:18;7.27;;;5.27;;
16310;SDS011;8264;48.510;8.872;2022-07-23T13:39:44;6.60;;;4.87;;
16310;SDS011;8264;48.510;8.872;2022-07-23T13:42:12;5.50;;;4.53;;
16310;SDS011;8264;48.510;8.872;2022-07-23T13:44:39;6.37;;;5.00;;
16310;SDS011;8264;48.510;8.872;2022-07-23T13:47:05;6.27;;;5.20;;
16310;SDS011;8264;48.510;8.872;2022-07-23T13:49:32;5.50;;;5.00;;
16310;SDS011;8264;48.510;8.872;2022-07-23T13:51:58;6.17;;;5.30;;
16310;SDS011;8264;48.510;8.872;2022-07-23T13:54:25;5.43;;;4.93;;
16310;SDS011;8264;48.510;8.872;2022-07-23T13:56:51;6.87;;;5.10;;
16310;SDS011;8264;48.510;8.872;2022-07-23T13:59:19;6.30;;;4.90;;
16310;SDS011;8264;48.510;8.872;2022-07-23T14:01:45;7.40;;;5.53;;
16310;SDS011;8264;48.510;8.872;2022-07-23T14:04:12;6.57;;;4.77;;
16310;SDS011;8264;48.510;8.872;2022-07-23T14:06:38;5.77;;;5.27;;
16310;SDS011;8264;48.510;8.872;2022-07-23T14:09:05;7.63;;;5.57;;
16310;SDS011;8264;48.510;8.872;2022-07-23T14:11:31;8.43;;;5.20;;
16310;SDS011;8264;48.510;8.872;2022-07-23T14:13:58;5.33;;;4.93;;
16310;SDS011;8264;48.510;8.872;2022-07-23T14:16:28;5.50;;;5.00;;
16310;SDS011;8264;48.510;8.872;2022-07-23T14:18:54;5.30;;;4.80;;
16310;SDS011;8264;48.510;8.872;2022-07-23T14:21:21;5.83;;;4.63;;
16310;SDS011;8264;48.510;8.872;2022-07-23T14:23:47;5.20;;;4.67;;
16310;SDS011;8264;48.510;8.872;2022-07-23T14:26:14;5.83;;;4.70;;
16310;SDS011;8264;48.510;8.872;2022-07-23T14:28:40;5.97;;;5.00;;
16310;SDS011;8264;48.510;8.872;2022-07-23T14:31:07;5.23;;;4.83;;
16310;SDS011;8264;48.510;8.872;2022-07-23T14:33:35;6.23;;;5.07;;
16310;SDS011;8264;48.510;8.872;2022-07-23T14:36:01;7.03;;;4.60;;
16310;SDS011;8264;48.510;8.872;2022-07-23T14:38:28;5.20;;;4.70;;
16310;SDS011;8264;48.510;8.872;2022-07-23T14:40:55;5.77;;;5.23;;
16310;SDS011;8264;48.510;8.872;2022-07-23T14:43:22;6.77;;;5.23;;
16310;SDS011;8264;48.510;8.872;2022-07-23T14:45:48;5.30;;;4.80;;
16310;SDS011;8264;48.510;8.872;2022-07-23T14:48:15;5.77;;;4.87;;
16310;SDS011;8264;48.510;8.872;2022-07-23T14:50:43;6.03;;;5.43;;
16310;SDS011;8264;48.510;8.872;2022-07-23T14:53:09;5.60;;;4.77;;
16310;SDS011;8264;48.510;8.872;2022-07-23T14:55:35;5.30;;;4.80;;
16310;SDS011;8264;48.510;8.872;2022-07-23T14:58:02;5.87;;;5.27;;
16310;SDS011;8264;48.510;8.872;2022-07-23T15:00:28;5.13;;;4.63;;
16310;SDS011;8264;48.510;8.872;2022-07-23T15:02:55;5.63;;;5.13;;
16310;SDS011;8264;48.510;8.872;2022-07-23T15:05:21;5.17;;;4.53;;
16310;SDS011;8264;48.510;8.872;2022-07-23T15:07:49;5.83;;;5.23;;